createdAt,value
2023-06-19T00:01:02.659Z,11.73
2023-06-19T00:03:29.097Z,10.45
2023-06-19T00:05:55.529Z,10.23
2023-06-19T00:08:21.938Z,9.73
2023-06-19T00:10:48.935Z,11.15
2023-06-19T00:13:15.870Z,9.93
2023-06-19T00:15:42.329Z,10.50
2023-06-19T00:18:08.901Z,11.75
2023-06-19T00:20:36.328Z,14.30
2023-06-19T00:23:03.213Z,10.65
2023-06-19T00:25:29.619Z,12.60
2023-06-19T00:27:56.083Z,9.98
2023-06-19T00:30:22.846Z,11.00
2023-06-19T00:32:51.078Z,11.32
2023-06-19T00:35:18.868Z,10.65
2023-06-19T00:40:22.671Z,11.23
2023-06-19T00:42:49.488Z,9.00
2023-06-19T00:45:16.060Z,9.85
2023-06-19T00:47:42.615Z,10.80
2023-06-19T00:50:09.235Z,10.15
2023-06-19T00:52:35.671Z,9.25
2023-06-19T00:55:02.503Z,9.93
2023-06-19T00:57:29.448Z,10.13
2023-06-19T00:59:56.298Z,11.73
2023-06-19T01:02:24.851Z,12.38
2023-06-19T01:04:53.142Z,10.70
2023-06-19T01:07:26.375Z,11.02
2023-06-19T01:09:55.655Z,10.02
2023-06-19T01:12:25.770Z,10.55
2023-06-19T01:14:59.504Z,11.30
2023-06-19T01:17:29.543Z,8.95
2023-06-19T01:19:57.006Z,9.35
2023-06-19T01:22:26.982Z,12.05
2023-06-19T01:24:53.430Z,9.20
2023-06-19T01:27:19.956Z,9.40
2023-06-19T01:29:46.455Z,9.77
2023-06-19T01:32:18.349Z,10.18
2023-06-19T01:34:44.901Z,10.27
2023-06-19T01:37:11.676Z,9.57
2023-06-19T01:39:38.461Z,10.00
2023-06-19T01:42:05.848Z,9.67
2023-06-19T01:44:32.445Z,9.95
2023-06-19T01:46:58.885Z,10.55
2023-06-19T01:49:25.430Z,9.93
2023-06-19T01:51:51.867Z,9.43
2023-06-19T01:54:18.299Z,10.38
2023-06-19T01:56:44.760Z,9.70
2023-06-19T01:59:11.185Z,9.95
2023-06-19T02:01:37.615Z,9.70
2023-06-19T02:04:04.279Z,9.95
2023-06-19T02:06:31.188Z,10.53
2023-06-19T02:08:57.617Z,8.70
2023-06-19T02:11:24.024Z,9.75
2023-06-19T02:13:50.423Z,10.82
2023-06-19T02:16:16.875Z,9.00
2023-06-19T02:18:43.374Z,9.52
2023-06-19T02:21:09.801Z,11.00
2023-06-19T02:23:36.196Z,8.95
2023-06-19T02:26:02.784Z,8.88
2023-06-19T02:28:29.303Z,8.77
2023-06-19T02:30:55.877Z,9.88
2023-06-19T02:33:22.793Z,9.80
2023-06-19T02:35:49.247Z,10.70
2023-06-19T02:38:15.957Z,11.98
2023-06-19T02:40:42.465Z,9.77
2023-06-19T02:43:08.948Z,9.68
2023-06-19T02:45:35.396Z,13.15
2023-06-19T02:48:01.929Z,10.10
2023-06-19T02:50:28.399Z,9.25
2023-06-19T02:52:54.808Z,9.48
2023-06-19T02:55:21.228Z,10.43
2023-06-19T02:57:48.793Z,9.65
2023-06-19T03:02:44.541Z,9.52
2023-06-19T03:05:11.476Z,10.85
2023-06-19T03:07:38.825Z,11.87
2023-06-19T03:10:05.856Z,12.20
2023-06-19T03:12:32.301Z,10.98
2023-06-19T03:14:58.725Z,11.30
2023-06-19T03:17:25.200Z,12.23
2023-06-19T03:19:51.634Z,12.90
2023-06-19T03:22:18.627Z,17.40
2023-06-19T03:24:45.305Z,18.05
2023-06-19T03:27:11.887Z,22.13
2023-06-19T03:29:38.296Z,23.08
2023-06-19T03:32:04.909Z,21.38
2023-06-19T03:34:31.364Z,25.98
2023-06-19T03:36:57.889Z,20.92
2023-06-19T03:39:24.301Z,23.70
2023-06-19T03:41:50.763Z,26.13
2023-06-19T03:44:17.171Z,25.52
2023-06-19T03:46:44.013Z,29.13
2023-06-19T03:49:10.905Z,33.08
2023-06-19T03:51:37.349Z,32.73
2023-06-19T03:54:03.787Z,38.45
2023-06-19T03:56:30.317Z,34.95
2023-06-19T03:58:56.776Z,35.70
2023-06-19T04:01:23.228Z,32.80
2023-06-19T04:03:49.722Z,39.35
2023-06-19T04:06:16.199Z,41.15
2023-06-19T04:08:42.638Z,32.72
2023-06-19T04:11:09.079Z,32.17
2023-06-19T04:13:35.584Z,37.42
2023-06-19T04:16:02.118Z,35.45
2023-06-19T04:18:29.344Z,33.85
2023-06-19T04:20:55.788Z,38.25
2023-06-19T04:23:22.252Z,36.15
2023-06-19T04:25:48.856Z,44.47
2023-06-19T04:28:15.260Z,39.67
2023-06-19T04:30:41.706Z,38.65
2023-06-19T04:33:09.790Z,34.65
2023-06-19T04:35:41.321Z,40.83
2023-06-19T04:38:08.189Z,34.65
2023-06-19T04:40:34.730Z,37.65
2023-06-19T04:43:02.278Z,31.13
2023-06-19T04:47:55.083Z,29.77
2023-06-19T04:50:22.313Z,31.50
2023-06-19T04:52:51.671Z,28.27
2023-06-19T04:55:18.864Z,25.42
2023-06-19T04:57:45.321Z,30.17
2023-06-19T05:00:12.071Z,32.60
2023-06-19T05:02:38.621Z,62.47
2023-06-19T05:05:05.344Z,83.68
2023-06-19T05:07:32.431Z,61.83
2023-06-19T05:09:59.422Z,34.20
2023-06-19T05:12:25.937Z,37.83
2023-06-19T05:14:52.404Z,39.20
2023-06-19T05:17:19.001Z,38.35
2023-06-19T05:19:45.427Z,46.05
2023-06-19T05:22:11.827Z,48.58
2023-06-19T05:24:38.359Z,41.88
2023-06-19T05:27:04.939Z,43.72
2023-06-19T05:29:32.018Z,48.25
2023-06-19T05:31:58.424Z,37.08
2023-06-19T05:34:24.872Z,48.67
2023-06-19T05:36:51.295Z,53.65
2023-06-19T05:39:19.994Z,43.45
2023-06-19T05:41:49.170Z,41.40
2023-06-19T05:44:17.778Z,36.10
2023-06-19T05:46:44.365Z,34.22
2023-06-19T05:49:10.831Z,23.60
2023-06-19T05:51:37.250Z,27.13
2023-06-19T05:54:05.050Z,24.50
2023-06-19T05:56:31.973Z,21.80
2023-06-19T05:58:58.388Z,28.10
2023-06-19T06:01:26.208Z,23.92
2023-06-19T06:03:52.740Z,22.92
2023-06-19T06:06:19.167Z,23.23
2023-06-19T06:08:45.629Z,21.85
2023-06-19T06:11:12.066Z,17.88
2023-06-19T06:13:38.657Z,17.55
2023-06-19T06:16:05.260Z,23.40
2023-06-19T06:18:31.718Z,20.27
2023-06-19T06:21:00.188Z,17.30
2023-06-19T06:23:26.773Z,19.48
2023-06-19T06:25:53.394Z,18.60
2023-06-19T06:28:19.888Z,15.98
2023-06-19T06:30:46.303Z,14.02
2023-06-19T06:33:12.707Z,18.05
2023-06-19T06:35:39.299Z,18.30
2023-06-19T06:38:06.060Z,15.47
2023-06-19T06:40:32.490Z,13.23
2023-06-19T06:42:59.254Z,14.80
2023-06-19T06:45:27.923Z,11.97
2023-06-19T06:47:54.673Z,12.25
2023-06-19T06:50:21.438Z,12.63
2023-06-19T06:52:48.145Z,12.27
2023-06-19T06:55:14.843Z,12.40
2023-06-19T06:57:41.234Z,11.87
2023-06-19T07:00:10.986Z,9.73
2023-06-19T07:02:38.711Z,10.70
2023-06-19T07:05:05.367Z,10.23
2023-06-19T07:07:31.792Z,11.83
2023-06-19T07:09:58.266Z,12.02
2023-06-19T07:12:24.708Z,10.27
2023-06-19T07:14:54.267Z,9.45
2023-06-19T07:17:21.360Z,10.60
2023-06-19T07:19:47.969Z,8.90
2023-06-19T07:22:14.638Z,12.63
2023-06-19T07:24:41.594Z,11.43
2023-06-19T07:27:08.100Z,9.43
2023-06-19T07:29:34.557Z,9.70
2023-06-19T07:32:03.545Z,13.45
2023-06-19T07:34:31.355Z,10.13
2023-06-19T07:36:57.815Z,7.63
2023-06-19T07:39:24.344Z,7.38
2023-06-19T07:41:50.779Z,10.17
2023-06-19T07:44:19.143Z,8.60
2023-06-19T07:46:45.625Z,7.78
2023-06-19T07:49:12.067Z,5.87
2023-06-19T07:51:38.488Z,6.18
2023-06-19T07:54:04.997Z,9.40
2023-06-19T07:56:31.508Z,8.03
2023-06-19T07:58:57.995Z,7.60
2023-06-19T08:01:24.440Z,7.03
2023-06-19T08:03:51.084Z,6.63
2023-06-19T08:06:17.592Z,8.75
2023-06-19T08:08:44.076Z,7.30
2023-06-19T08:11:10.470Z,9.17
2023-06-19T08:13:36.897Z,9.60
2023-06-19T08:16:03.323Z,7.77
2023-06-19T08:18:29.768Z,7.20
2023-06-19T08:20:56.310Z,7.80
2023-06-19T08:23:22.769Z,9.30
2023-06-19T08:25:49.220Z,7.97
2023-06-19T08:28:15.693Z,7.33
2023-06-19T08:30:42.117Z,7.88
2023-06-19T08:33:09.605Z,11.20
2023-06-19T08:35:36.093Z,6.82
2023-06-19T08:38:02.512Z,9.82
2023-06-19T08:40:29.158Z,7.55
2023-06-19T08:42:57.022Z,8.70
2023-06-19T08:45:23.561Z,6.05
2023-06-19T08:47:50.328Z,6.00
2023-06-19T08:50:17.235Z,8.18
2023-06-19T08:52:43.692Z,7.10
2023-06-19T08:55:10.217Z,8.73
2023-06-19T08:57:39.950Z,12.32
2023-06-19T09:00:08.067Z,16.30
2023-06-19T09:02:38.639Z,8.93
2023-06-19T09:05:15.399Z,8.48
2023-06-19T09:07:42.100Z,7.53
2023-06-19T09:10:18.937Z,11.63
2023-06-19T09:12:56.587Z,8.50
2023-06-19T09:15:24.756Z,8.82
2023-06-19T09:18:04.490Z,8.13
2023-06-19T09:20:31.506Z,7.72
2023-06-19T09:22:58.690Z,9.80
2023-06-19T09:27:52.701Z,6.95
2023-06-19T09:30:19.232Z,9.17
2023-06-19T09:32:45.753Z,7.13
2023-06-19T09:35:12.611Z,7.95
2023-06-19T09:37:40.172Z,6.57
2023-06-19T09:40:12.576Z,7.57
2023-06-19T09:42:45.076Z,5.72
2023-06-19T09:45:12.618Z,6.32
2023-06-19T09:47:40.278Z,8.20
2023-06-19T09:50:07.603Z,8.05
2023-06-19T09:52:35.023Z,8.05
2023-06-19T09:55:03.779Z,8.57
2023-06-19T09:57:30.559Z,6.88
2023-06-19T09:59:58.928Z,5.40
2023-06-19T10:02:28.461Z,5.57
2023-06-19T10:04:58.841Z,8.40
2023-06-19T10:07:28.774Z,5.75
2023-06-19T10:09:58.926Z,6.43
2023-06-19T10:12:35.032Z,5.25
2023-06-19T10:15:09.076Z,4.97
2023-06-19T10:17:35.535Z,7.10
2023-06-19T10:20:02.078Z,4.18
2023-06-19T10:22:31.846Z,6.30
2023-06-19T10:24:58.624Z,7.78
2023-06-19T10:27:26.455Z,6.07
2023-06-19T10:29:55.713Z,6.10
2023-06-19T10:32:29.889Z,6.35
2023-06-19T10:34:56.630Z,5.03
2023-06-19T10:37:33.105Z,6.88
2023-06-19T10:39:59.615Z,7.03
2023-06-19T10:42:26.043Z,5.65
2023-06-19T10:44:52.462Z,7.38
2023-06-19T10:47:18.917Z,7.00
2023-06-19T10:49:46.493Z,7.50
2023-06-19T10:52:13.008Z,6.28
2023-06-19T10:54:39.462Z,5.63
2023-06-19T10:57:06.040Z,5.78
2023-06-19T10:59:34.579Z,7.20
2023-06-19T11:02:01.386Z,4.45
2023-06-19T11:04:27.946Z,5.28
2023-06-19T11:06:54.394Z,3.28
2023-06-19T11:09:20.860Z,3.30
2023-06-19T11:11:47.944Z,4.05
2023-06-19T11:14:15.173Z,4.50
2023-06-19T11:16:42.836Z,5.70
2023-06-19T11:19:10.285Z,3.38
2023-06-19T11:21:40.813Z,3.85
2023-06-19T11:24:11.627Z,2.20
2023-06-19T11:26:51.658Z,3.55
2023-06-19T11:29:23.081Z,2.90
2023-06-19T11:31:50.134Z,3.25
2023-06-19T11:34:17.247Z,3.47
2023-06-19T11:36:44.252Z,3.22
2023-06-19T11:39:14.553Z,2.88
2023-06-19T11:41:41.217Z,3.90
2023-06-19T11:44:08.323Z,1.80
2023-06-19T11:46:35.167Z,4.07
2023-06-19T11:49:14.765Z,2.78
2023-06-19T11:51:41.784Z,3.25
2023-06-19T11:54:12.376Z,3.25
2023-06-19T11:56:39.683Z,2.40
2023-06-19T11:59:06.332Z,3.20
2023-06-19T12:01:33.540Z,2.00
2023-06-19T12:04:00.566Z,3.40
2023-06-19T12:06:27.461Z,1.95
2023-06-19T12:08:53.892Z,3.13
2023-06-19T12:13:46.858Z,2.72
2023-06-19T12:18:39.621Z,2.20
2023-06-19T12:21:08.167Z,1.60
2023-06-19T12:23:37.327Z,3.40
2023-06-19T12:26:03.944Z,2.45
2023-06-19T12:28:31.033Z,3.03
2023-06-19T12:30:57.796Z,2.60
2023-06-19T12:33:24.334Z,2.08
2023-06-19T12:38:17.228Z,1.85
2023-06-19T12:40:43.707Z,2.85
2023-06-19T12:43:10.115Z,1.90
2023-06-19T12:45:36.518Z,3.67
2023-06-19T12:48:02.995Z,0.85
2023-06-19T12:50:29.447Z,1.83
2023-06-19T12:52:55.842Z,2.55
2023-06-19T12:55:22.352Z,1.70
2023-06-19T12:57:48.769Z,2.22
2023-06-19T13:00:15.358Z,1.35
2023-06-19T13:02:44.104Z,1.33
2023-06-19T13:05:11.251Z,2.05
2023-06-19T13:07:37.710Z,1.95
2023-06-19T13:10:04.833Z,1.70
2023-06-19T13:12:31.306Z,2.40
2023-06-19T13:14:57.732Z,2.72
2023-06-19T13:17:24.977Z,2.95
2023-06-19T13:19:51.444Z,4.88
2023-06-19T13:22:17.935Z,1.20
2023-06-19T13:24:44.444Z,2.08
2023-06-19T13:27:11.085Z,3.63
2023-06-19T13:29:37.677Z,3.35
2023-06-19T13:32:04.278Z,1.60
2023-06-19T13:34:31.091Z,1.35
2023-06-19T13:36:57.506Z,1.15
2023-06-19T13:39:24.000Z,1.50
2023-06-19T13:41:50.552Z,2.67
2023-06-19T13:44:16.978Z,1.52
2023-06-19T13:46:43.686Z,1.95
2023-06-19T13:49:12.032Z,1.77
2023-06-19T13:51:38.904Z,1.40
2023-06-19T13:54:05.498Z,1.50
2023-06-19T13:56:32.124Z,2.20
2023-06-19T13:58:59.526Z,2.63
2023-06-19T14:01:29.023Z,1.85
2023-06-19T14:03:55.451Z,3.00
2023-06-19T14:06:22.007Z,2.67
2023-06-19T14:08:48.483Z,2.38
2023-06-19T14:11:14.929Z,3.95
2023-06-19T14:13:41.381Z,2.22
2023-06-19T14:16:08.782Z,1.73
2023-06-19T14:18:37.939Z,3.97
2023-06-19T14:21:04.456Z,1.95
2023-06-19T14:23:30.925Z,1.73
2023-06-19T14:25:57.465Z,1.45
2023-06-19T14:28:23.892Z,2.17
2023-06-19T14:30:50.320Z,1.88
2023-06-19T14:33:16.861Z,4.00
2023-06-19T14:35:46.671Z,1.60
2023-06-19T14:38:14.481Z,2.05
2023-06-19T14:40:41.619Z,2.03
2023-06-19T14:43:10.082Z,1.42
2023-06-19T14:45:36.943Z,1.42
2023-06-19T14:48:03.486Z,2.20
2023-06-19T14:50:30.107Z,2.00
2023-06-19T14:52:56.600Z,1.30
2023-06-19T14:55:23.036Z,1.58
2023-06-19T14:57:49.441Z,1.38
2023-06-19T15:00:16.370Z,2.33
2023-06-19T15:02:43.718Z,1.67
2023-06-19T15:05:10.350Z,1.27
2023-06-19T15:07:37.023Z,2.70
2023-06-19T15:10:04.908Z,1.52
2023-06-19T15:12:33.338Z,1.20
2023-06-19T15:14:59.773Z,4.05
2023-06-19T15:17:26.269Z,2.67
2023-06-19T15:19:52.713Z,3.33
2023-06-19T15:22:19.138Z,2.83
2023-06-19T15:24:45.611Z,1.85
2023-06-19T15:27:12.766Z,2.50
2023-06-19T15:29:40.002Z,1.75
2023-06-19T15:32:06.596Z,2.60
2023-06-19T15:34:33.016Z,2.33
2023-06-19T15:36:59.435Z,2.20
2023-06-19T15:39:26.025Z,2.03
2023-06-19T15:41:52.461Z,2.53
2023-06-19T15:46:45.218Z,2.35
2023-06-19T15:49:12.730Z,2.50
2023-06-19T15:51:39.182Z,2.88
2023-06-19T15:54:05.610Z,1.80
2023-06-19T15:56:32.038Z,3.53
2023-06-19T15:58:58.488Z,2.65
2023-06-19T16:01:24.943Z,2.95
2023-06-19T16:03:52.154Z,3.33
2023-06-19T16:06:18.729Z,1.60
2023-06-19T16:08:45.207Z,2.97
2023-06-19T16:11:12.053Z,1.75
2023-06-19T16:13:38.502Z,2.75
2023-06-19T16:16:05.007Z,3.35
2023-06-19T16:18:31.472Z,2.83
2023-06-19T16:20:57.944Z,2.67
2023-06-19T16:23:24.642Z,2.17
2023-06-19T16:25:51.109Z,2.65
2023-06-19T16:28:18.064Z,3.13
2023-06-19T16:30:44.513Z,1.63
2023-06-19T16:33:11.000Z,2.67
2023-06-19T16:35:37.460Z,3.72
2023-06-19T16:38:03.881Z,2.50
2023-06-19T16:40:30.318Z,2.53
2023-06-19T16:42:56.848Z,3.73
2023-06-19T16:45:24.959Z,3.03
2023-06-19T16:47:51.476Z,2.95
2023-06-19T16:50:17.913Z,2.65
2023-06-19T16:52:44.586Z,3.20
2023-06-19T16:55:11.024Z,3.83
2023-06-19T16:57:37.455Z,2.60
2023-06-19T17:00:05.249Z,2.23
2023-06-19T17:02:31.801Z,3.58
2023-06-19T17:04:58.435Z,2.90
2023-06-19T17:07:24.888Z,1.50
2023-06-19T17:09:51.338Z,3.93
2023-06-19T17:12:17.784Z,4.50
2023-06-19T17:14:44.257Z,2.70
2023-06-19T17:17:10.843Z,3.13
2023-06-19T17:19:37.313Z,2.20
2023-06-19T17:22:03.989Z,2.50
2023-06-19T17:24:30.508Z,1.63
2023-06-19T17:26:58.518Z,2.28
2023-06-19T17:29:28.129Z,1.40
2023-06-19T17:31:55.279Z,2.20
2023-06-19T17:34:21.810Z,3.42
2023-06-19T17:36:48.300Z,2.03
2023-06-19T17:39:14.792Z,1.60
2023-06-19T17:41:41.256Z,3.03
2023-06-19T17:44:07.834Z,2.30
2023-06-19T17:46:34.368Z,2.97
2023-06-19T17:49:00.848Z,2.97
2023-06-19T17:51:27.266Z,3.27
2023-06-19T17:53:53.655Z,1.70
2023-06-19T17:56:20.192Z,3.08
2023-06-19T17:58:46.623Z,3.28
2023-06-19T18:01:13.072Z,3.75
2023-06-19T18:03:40.451Z,2.53
2023-06-19T18:06:07.039Z,2.63
2023-06-19T18:08:33.554Z,4.10
2023-06-19T18:10:59.990Z,5.77
2023-06-19T18:13:26.383Z,5.57
2023-06-19T18:16:06.834Z,3.85
2023-06-19T18:18:37.473Z,1.75
2023-06-19T18:21:03.980Z,4.23
2023-06-19T18:23:30.403Z,3.40
2023-06-19T18:25:56.887Z,4.10
2023-06-19T18:28:23.321Z,3.83
2023-06-19T18:30:49.787Z,3.90
2023-06-19T18:33:16.279Z,4.40
2023-06-19T18:35:42.685Z,2.93
2023-06-19T18:38:09.237Z,6.60
2023-06-19T18:40:35.666Z,3.03
2023-06-19T18:43:02.120Z,3.70
2023-06-19T18:45:28.586Z,3.00
2023-06-19T18:47:55.042Z,3.90
2023-06-19T18:50:21.487Z,2.70
2023-06-19T18:52:47.927Z,3.77
2023-06-19T18:55:14.350Z,2.88
2023-06-19T18:57:40.772Z,3.40
2023-06-19T19:00:07.646Z,4.35
2023-06-19T19:02:34.666Z,3.05
2023-06-19T19:05:02.364Z,4.18
2023-06-19T19:07:28.792Z,2.95
2023-06-19T19:09:55.309Z,5.03
2023-06-19T19:12:21.720Z,2.83
2023-06-19T19:14:48.270Z,2.70
2023-06-19T19:17:14.683Z,3.87
2023-06-19T19:19:41.087Z,2.80
2023-06-19T19:22:07.601Z,4.13
2023-06-19T19:24:34.166Z,3.70
2023-06-19T19:27:00.676Z,2.90
2023-06-19T19:29:27.351Z,4.35
2023-06-19T19:31:53.796Z,3.30
2023-06-19T19:34:22.860Z,4.07
2023-06-19T19:36:50.821Z,6.10
2023-06-19T19:39:17.298Z,3.60
2023-06-19T19:41:45.381Z,5.17
2023-06-19T19:44:14.920Z,5.18
2023-06-19T19:46:41.542Z,4.28
2023-06-19T19:49:08.299Z,2.95
2023-06-19T19:51:34.756Z,3.93
2023-06-19T19:54:01.165Z,2.83
2023-06-19T19:56:27.731Z,3.58
2023-06-19T19:58:54.225Z,5.30
2023-06-19T20:01:20.673Z,4.63
2023-06-19T20:03:47.595Z,4.50
2023-06-19T20:06:14.163Z,6.35
2023-06-19T20:08:44.563Z,6.57
2023-06-19T20:11:14.106Z,33.17
2023-06-19T20:13:40.805Z,10.75
2023-06-19T20:16:10.620Z,19.23
2023-06-19T20:18:37.304Z,20.10
2023-06-19T20:21:03.748Z,71.87
2023-06-19T20:23:30.333Z,68.80
2023-06-19T20:25:56.834Z,40.70
2023-06-19T20:28:23.255Z,7.28
2023-06-19T20:30:49.710Z,4.85
2023-06-19T20:33:16.149Z,11.60
2023-06-19T20:35:42.626Z,6.18
2023-06-19T20:38:09.115Z,5.53
2023-06-19T20:40:35.557Z,6.30
2023-06-19T20:43:01.964Z,5.00
2023-06-19T20:45:28.422Z,4.45
2023-06-19T20:47:54.961Z,4.28
2023-06-19T20:50:21.822Z,6.47
2023-06-19T20:52:48.377Z,3.95
2023-06-19T20:55:15.708Z,3.88
2023-06-19T20:57:42.284Z,5.15
2023-06-19T21:00:12.002Z,4.95
2023-06-19T21:02:38.985Z,6.15
2023-06-19T21:05:06.003Z,6.68
2023-06-19T21:07:32.703Z,7.38
2023-06-19T21:09:59.150Z,5.17
2023-06-19T21:12:25.621Z,5.80
2023-06-19T21:14:55.338Z,5.13
2023-06-19T21:17:22.174Z,5.82
2023-06-19T21:19:48.741Z,6.80
2023-06-19T21:22:15.211Z,5.20
2023-06-19T21:24:41.817Z,3.60
2023-06-19T21:27:08.388Z,6.15
2023-06-19T21:29:34.976Z,3.67
2023-06-19T21:32:01.468Z,7.27
2023-06-19T21:34:27.933Z,6.95
2023-06-19T21:36:54.415Z,6.00
2023-06-19T21:39:20.824Z,5.45
2023-06-19T21:41:47.244Z,7.45
2023-06-19T21:44:13.666Z,3.63
2023-06-19T21:46:40.156Z,4.50
2023-06-19T21:49:07.029Z,5.13
2023-06-19T21:51:34.949Z,4.28
2023-06-19T21:54:01.870Z,5.97
2023-06-19T21:56:28.354Z,4.40
2023-06-19T21:58:54.784Z,4.78
2023-06-19T22:01:21.249Z,5.25
2023-06-19T22:03:47.748Z,4.22
2023-06-19T22:06:15.302Z,5.38
2023-06-19T22:11:09.730Z,3.35
2023-06-19T22:13:36.279Z,5.50
2023-06-19T22:16:03.198Z,3.95
2023-06-19T22:18:29.675Z,4.50
2023-06-19T22:20:56.102Z,5.25
2023-06-19T22:23:22.601Z,6.20
2023-06-19T22:25:49.084Z,2.88
2023-06-19T22:28:15.612Z,5.63
2023-06-19T22:30:42.046Z,6.75
2023-06-19T22:33:09.017Z,7.45
2023-06-19T22:35:35.573Z,6.38
2023-06-19T22:38:01.982Z,6.90
2023-06-19T22:40:28.544Z,5.28
2023-06-19T22:42:54.983Z,4.38
2023-06-19T22:45:22.001Z,4.72
2023-06-19T22:47:50.889Z,6.70
2023-06-19T22:50:17.587Z,6.30
2023-06-19T22:52:44.099Z,6.35
2023-06-19T22:55:11.046Z,4.90
2023-06-19T22:57:37.656Z,6.57
2023-06-19T23:00:14.454Z,6.88
2023-06-19T23:02:41.651Z,10.45
2023-06-19T23:05:09.021Z,4.65
2023-06-19T23:07:35.670Z,4.10
2023-06-19T23:10:03.456Z,5.33
2023-06-19T23:12:29.865Z,5.22
2023-06-19T23:14:56.510Z,4.68
2023-06-19T23:17:23.260Z,4.67
2023-06-19T23:19:49.692Z,5.93
2023-06-19T23:22:16.183Z,7.60
2023-06-19T23:24:42.730Z,5.75
2023-06-19T23:27:09.533Z,8.80
2023-06-19T23:29:37.086Z,8.30
2023-06-19T23:34:29.939Z,5.75
2023-06-19T23:36:56.427Z,8.98
2023-06-19T23:39:22.848Z,5.40
2023-06-19T23:41:49.260Z,4.88
2023-06-19T23:44:15.686Z,4.13
2023-06-19T23:46:42.677Z,6.55
2023-06-19T23:49:09.267Z,6.85
2023-06-19T23:51:36.285Z,10.98
2023-06-19T23:54:02.737Z,9.60
2023-06-19T23:56:29.243Z,6.72
2023-06-19T23:58:55.686Z,6.60
